Time,TemperatureF,DewpointF,PressureIn,WindDirection,WindDirectionDegrees,WindSpeedMPH,WindSpeedGustMPH,Humidity,HourlyPrecipIn,Conditions,Clouds,dailyrainin,SoftwareType,DateUTC
2013-11-19 00:09:00,52.6,28.0,30.00,WNW,296,3.0,9.0,39,0.00,,,0.00,weatherlink.com 1.10,2013-11-19 05:09:00,
2013-11-19 00:24:00,51.8,28.0,30.00,West,262,5.0,11.0,40,0.00,,,0.00,weatherlink.com 1.10,2013-11-19 05:24:00,
2013-11-19 00:39:00,51.9,27.0,30.00,WNW,286,5.0,13.0,39,0.00,,,0.00,weatherlink.com 1.10,2013-11-19 05:39:00,
2013-11-19 00:54:00,51.7,28.0,30.00,WNW,300,3.0,7.0,40,0.00,,,0.00,weatherlink.com 1.10,2013-11-19 05:54:00,
2013-11-19 01:09:00,51.4,29.0,30.00,WNW,300,7.0,11.0,42,0.00,,,0.00,weatherlink.com 1.10,2013-11-19 06:09:00,
2013-11-19 01:24:00,51.1,29.0,29.99,West,278,3.0,10.0,43,0.00,,,0.00,weatherlink.com 1.10,2013-11-19 06:24:00,
2013-11-19 01:39:00,50.5,29.0,30.00,WNW,297,6.0,8.0,44,0.00,,,0.00,weatherlink.com 1.10,2013-11-19 06:39:00,
2013-11-19 01:54:00,50.5,29.0,30.01,NW,311,2.0,9.0,43,0.00,,,0.00,weatherlink.com 1.10,2013-11-19 06:54:00,
2013-11-19 02:09:00,49.6,29.0,30.01,West,266,2.0,8.0,45,0.00,,,0.00,weatherlink.com 1.10,2013-11-19 07:09:00,
2013-11-19 02:25:00,49.5,29.0,30.01,WNW,302,3.0,10.0,46,0.00,,,0.00,weatherlink.com 1.10,2013-11-19 07:25:00,
2013-11-19 02:40:00,49.3,29.0,30.02,WNW,285,3.0,8.0,46,0.00,,,0.00,weatherlink.com 1.10,2013-11-19 07:40:00,
2013-11-19 02:55:00,48.8,29.0,30.02,WNW,283,3.0,8.0,47,0.00,,,0.00,weatherlink.com 1.10,2013-11-19 07:55:00,
2013-11-19 03:10:00,48.5,29.0,30.02,WSW,251,2.0,6.0,47,0.00,,,0.00,weatherlink.com 1.10,2013-11-19 08:10:00,
2013-11-19 03:25:00,48.0,29.0,30.03,NW,317,4.0,6.0,48,0.00,,,0.00,weatherlink.com 1.10,2013-11-19 08:25:00,
2013-11-19 03:40:00,46.9,29.0,30.03,WNW,285,2.0,6.0,50,0.00,,,0.00,weatherlink.com 1.10,2013-11-19 08:40:00,
2013-11-19 03:55:00,46.4,29.0,30.04,WNW,301,2.0,6.0,52,0.00,,,0.00,weatherlink.com 1.10,2013-11-19 08:55:00,
2013-11-19 04:10:00,45.8,29.0,30.05,WNW,295,1.0,6.0,53,0.00,,,0.00,weatherlink.com 1.10,2013-11-19 09:10:00,
2013-11-19 04:25:00,46.1,29.0,30.05,West,281,3.0,6.0,52,0.00,,,0.00,weatherlink.com 1.10,2013-11-19 09:25:00,
2013-11-19 04:40:00,45.8,28.0,30.06,NW,311,3.0,7.0,51,0.00,,,0.00,weatherlink.com 1.10,2013-11-19 09:40:00,
2013-11-19 04:55:00,45.0,29.0,30.07,NW,307,4.0,5.0,53,0.00,,,0.00,weatherlink.com 1.10,2013-11-19 09:55:00,
2013-11-19 05:10:00,44.2,29.0,30.07,WNW,293,1.0,5.0,56,0.00,,,0.00,weatherlink.com 1.10,2013-11-19 10:10:00,
2013-11-19 05:25:00,43.4,28.0,30.07,NW,314,4.0,6.0,56,0.00,,,0.00,weatherlink.com 1.10,2013-11-19 10:25:00,
2013-11-19 05:40:00,43.6,28.0,30.08,WNW,293,2.0,8.0,55,0.00,,,0.00,weatherlink.com 1.10,2013-11-19 10:40:00,
2013-11-19 05:55:00,43.4,28.0,30.09,West,263,4.0,6.0,56,0.00,,,0.00,weatherlink.com 1.10,2013-11-19 10:55:00,
2013-11-19 06:10:00,43.2,29.0,30.10,WNW,286,2.0,6.0,57,0.00,,,0.00,weatherlink.com 1.10,2013-11-19 11:10:00,
2013-11-19 06:25:00,43.0,29.0,30.12,WNW,282,3.0,6.0,57,0.00,,,0.00,weatherlink.com 1.10,2013-11-19 11:25:00,
2013-11-19 06:40:00,42.3,28.0,30.13,West,271,0.0,7.0,57,0.00,,,0.00,weatherlink.com 1.10,2013-11-19 11:40:00,
2013-11-19 06:55:00,42.2,29.0,30.13,West,280,1.0,4.0,59,0.00,,,0.00,weatherlink.com 1.10,2013-11-19 11:55:00,
2013-11-19 07:10:00,41.8,28.0,30.14,West,262,3.0,5.0,59,0.00,,,0.00,weatherlink.com 1.10,2013-11-19 12:10:00,
2013-11-19 07:25:00,41.9,28.0,30.14,NW,307,3.0,3.0,59,0.00,,,0.00,weatherlink.com 1.10,2013-11-19 12:25:00,
2013-11-19 07:40:00,42.6,29.0,30.15,West,281,0.0,3.0,59,0.00,,,0.00,weatherlink.com 1.10,2013-11-19 12:40:00,
2013-11-19 07:56:00,44.0,30.0,30.16,West,265,3.0,4.0,58,0.00,,,0.00,weatherlink.com 1.10,2013-11-19 12:56:00,
2013-11-19 08:11:00,45.0,30.0,30.16,WNW,293,4.0,8.0,56,0.00,,,0.00,weatherlink.com 1.10,2013-11-19 13:11:00,
2013-11-19 08:26:00,46.0,30.0,30.16,WNW,285,4.0,9.0,54,0.00,,,0.00,weatherlink.com 1.10,2013-11-19 13:26:00,
2013-11-19 08:41:00,46.6,30.0,30.17,West,266,8.0,12.0,53,0.00,,,0.00,weatherlink.com 1.10,2013-11-19 13:41:00,
2013-11-19 08:56:00,47.5,31.0,30.18,WNW,290,6.0,10.0,53,0.00,,,0.00,weatherlink.com 1.10,2013-11-19 13:56:00,
2013-11-19 09:11:00,48.2,31.0,30.19,NNW,336,6.0,10.0,51,0.00,,,0.00,weatherlink.com 1.10,2013-11-19 14:11:00,
2013-11-19 09:26:00,48.6,30.0,30.20,West,269,8.0,14.0,49,0.00,,,0.00,weatherlink.com 1.10,2013-11-19 14:26:00,
2013-11-19 09:41:00,48.8,29.0,30.20,NW,325,10.0,17.0,47,0.00,,,0.00,weatherlink.com 1.10,2013-11-19 14:41:00,
2013-11-19 09:56:00,49.8,31.0,30.20,WNW,289,3.0,14.0,48,0.00,,,0.00,weatherlink.com 1.10,2013-11-19 14:56:00,
2013-11-19 10:11:00,50.1,30.0,30.20,WNW,285,9.0,12.0,46,0.00,,,0.00,weatherlink.com 1.10,2013-11-19 15:11:00,
2013-11-19 10:26:00,50.5,30.0,30.20,West,273,9.0,11.0,45,0.00,,,0.00,weatherlink.com 1.10,2013-11-19 15:26:00,
2013-11-19 10:41:00,50.6,30.0,30.21,NW,314,6.0,12.0,45,0.00,,,0.00,weatherlink.com 1.10,2013-11-19 15:41:00,
2013-11-19 10:56:00,51.1,30.0,30.20,NNW,340,11.0,17.0,44,0.00,,,0.00,weatherlink.com 1.10,2013-11-19 15:56:00,
2013-11-19 11:11:00,51.2,30.0,30.20,West,274,4.0,15.0,44,0.00,,,0.00,weatherlink.com 1.10,2013-11-19 16:11:00,
2013-11-19 11:26:00,51.8,30.0,30.20,WNW,302,6.0,10.0,43,0.00,,,0.00,weatherlink.com 1.10,2013-11-19 16:26:00,
2013-11-19 11:41:00,52.0,30.0,30.19,WNW,292,4.0,10.0,43,0.00,,,0.00,weatherlink.com 1.10,2013-11-19 16:41:00,
2013-11-19 11:56:00,52.9,31.0,30.19,NNW,342,6.0,10.0,44,0.00,,,0.00,weatherlink.com 1.10,2013-11-19 16:56:00,
2013-11-19 12:11:00,53.1,30.0,30.18,NNW,330,5.0,9.0,41,0.00,,,0.00,weatherlink.com 1.10,2013-11-19 17:11:00,
2013-11-19 12:26:00,53.4,30.0,30.18,NW,318,5.0,10.0,41,0.00,,,0.00,weatherlink.com 1.10,2013-11-19 17:26:00,
2013-11-19 12:56:00,53.7,30.0,30.17,NNW,339,8.0,11.0,40,0.00,,,0.00,weatherlink.com 1.10,2013-11-19 17:56:00,
2013-11-19 13:11:00,53.7,30.0,30.17,NNW,346,7.0,12.0,40,0.00,,,0.00,weatherlink.com 1.10,2013-11-19 18:11:00,
2013-11-19 13:26:00,54.4,29.0,30.17,North,351,6.0,12.0,38,0.00,,,0.00,weatherlink.com 1.10,2013-11-19 18:26:00,
2013-11-19 13:41:00,54.1,29.0,30.17,NW,312,8.0,12.0,39,0.00,,,0.00,weatherlink.com 1.10,2013-11-19 18:41:00,
2013-11-19 13:56:00,54.7,30.0,30.16,NNW,331,6.0,9.0,39,0.00,,,0.00,weatherlink.com 1.10,2013-11-19 18:56:00,
2013-11-19 14:11:00,54.0,31.0,30.15,NNW,338,3.0,13.0,41,0.00,,,0.00,weatherlink.com 1.10,2013-11-19 19:11:00,
2013-11-19 14:26:00,53.7,29.0,30.16,NNW,335,4.0,10.0,39,0.00,,,0.00,weatherlink.com 1.10,2013-11-19 19:26:00,
2013-11-19 14:41:00,53.0,29.0,30.16,NNW,335,8.0,11.0,40,0.00,,,0.00,weatherlink.com 1.10,2013-11-19 19:41:00,
2013-11-19 14:56:00,52.4,30.0,30.17,NNW,330,4.0,10.0,42,0.00,,,0.00,weatherlink.com 1.10,2013-11-19 19:56:00,
2013-11-19 15:11:00,52.8,30.0,30.16,North,1,1.0,4.0,42,0.00,,,0.00,weatherlink.com 1.10,2013-11-19 20:11:00,
2013-11-19 15:26:00,52.8,31.0,30.17,North,2,1.0,5.0,43,0.00,,,0.00,weatherlink.com 1.10,2013-11-19 20:26:00,
2013-11-19 15:41:00,53.0,30.0,30.18,NW,308,3.0,5.0,42,0.00,,,0.00,weatherlink.com 1.10,2013-11-19 20:41:00,
2013-11-19 15:56:00,53.0,30.0,30.19,NW,323,4.0,6.0,41,0.00,,,0.00,weatherlink.com 1.10,2013-11-19 20:56:00,
2013-11-19 16:11:00,53.0,29.0,30.19,North,354,3.0,5.0,40,0.00,,,0.00,weatherlink.com 1.10,2013-11-19 21:11:00,
2013-11-19 16:26:00,52.6,29.0,30.19,North,1,2.0,6.0,41,0.00,,,0.00,weatherlink.com 1.10,2013-11-19 21:26:00,
2013-11-19 16:41:00,51.8,29.0,30.20,NE,34,3.0,7.0,42,0.00,,,0.00,weatherlink.com 1.10,2013-11-19 21:41:00,
2013-11-19 16:56:00,51.2,29.0,30.20,North,1,3.0,5.0,42,0.00,,,0.00,weatherlink.com 1.10,2013-11-19 21:56:00,
2013-11-19 17:11:00,50.6,29.0,30.21,NNE,13,2.0,5.0,43,0.00,,,0.00,weatherlink.com 1.10,2013-11-19 22:11:00,
2013-11-19 17:26:00,50.1,29.0,30.22,North,3,0.0,3.0,45,0.00,,,0.00,weatherlink.com 1.10,2013-11-19 22:26:00,
2013-11-19 17:41:00,49.0,30.0,30.23,North,3,0.0,0.0,49,0.00,,,0.00,weatherlink.com 1.10,2013-11-19 22:41:00,
2013-11-19 17:56:00,48.0,29.0,30.23,North,3,1.0,2.0,48,0.00,,,0.00,weatherlink.com 1.10,2013-11-19 22:56:00,
2013-11-19 18:11:00,46.5,32.0,30.24,North,3,0.0,0.0,58,0.00,,,0.00,weatherlink.com 1.10,2013-11-19 23:11:00,
2013-11-19 18:26:00,43.9,32.0,30.25,North,3,0.0,0.0,64,0.00,,,0.00,weatherlink.com 1.10,2013-11-19 23:26:00,
2013-11-19 18:41:00,41.9,32.0,30.25,North,3,0.0,0.0,68,0.00,,,0.00,weatherlink.com 1.10,2013-11-19 23:41:00,
2013-11-19 18:56:00,40.7,32.0,30.26,North,3,0.0,2.0,72,0.00,,,0.00,weatherlink.com 1.10,2013-11-19 23:56:00,
2013-11-19 19:12:00,41.2,32.0,30.26,North,3,0.0,2.0,69,0.00,,,0.00,weatherlink.com 1.10,2013-11-20 00:12:00,
2013-11-19 19:27:00,39.9,31.0,30.25,North,3,0.0,2.0,70,0.00,,,0.00,weatherlink.com 1.10,2013-11-20 00:27:00,
2013-11-19 19:42:00,43.7,30.0,30.27,North,3,0.0,4.0,60,0.00,,,0.00,weatherlink.com 1.10,2013-11-20 00:42:00,
2013-11-19 19:57:00,41.9,32.0,30.28,North,360,2.0,2.0,67,0.00,,,0.00,weatherlink.com 1.10,2013-11-20 00:57:00,
2013-11-19 20:12:00,44.0,30.0,30.28,NNE,20,5.0,6.0,59,0.00,,,0.00,weatherlink.com 1.10,2013-11-20 01:12:00,
2013-11-19 20:27:00,44.3,31.0,30.29,North,360,4.0,7.0,59,0.00,,,0.00,weatherlink.com 1.10,2013-11-20 01:27:00,
2013-11-19 20:42:00,44.3,30.0,30.29,NNE,32,1.0,6.0,58,0.00,,,0.00,weatherlink.com 1.10,2013-11-20 01:42:00,
2013-11-19 20:57:00,43.8,30.0,30.29,ENE,59,3.0,4.0,58,0.00,,,0.00,weatherlink.com 1.10,2013-11-20 01:57:00,
2013-11-19 21:12:00,43.7,30.0,30.30,NE,46,2.0,7.0,58,0.00,,,0.00,weatherlink.com 1.10,2013-11-20 02:12:00,
2013-11-19 21:27:00,43.6,30.0,30.31,ENE,66,2.0,4.0,58,0.00,,,0.00,weatherlink.com 1.10,2013-11-20 02:27:00,
2013-11-19 21:42:00,43.5,29.0,30.32,NNE,27,4.0,8.0,58,0.00,,,0.00,weatherlink.com 1.10,2013-11-20 02:42:00,
2013-11-19 21:57:00,43.2,30.0,30.33,NE,47,0.0,4.0,59,0.00,,,0.00,weatherlink.com 1.10,2013-11-20 02:57:00,
2013-11-19 22:12:00,42.8,30.0,30.33,NE,41,2.0,6.0,60,0.00,,,0.00,weatherlink.com 1.10,2013-11-20 03:12:00,
2013-11-19 22:27:00,42.4,29.0,30.33,NE,38,0.0,5.0,60,0.00,,,0.00,weatherlink.com 1.10,2013-11-20 03:27:00,
2013-11-19 22:42:00,42.2,29.0,30.34,NE,47,2.0,3.0,60,0.00,,,0.00,weatherlink.com 1.10,2013-11-20 03:42:00,
2013-11-19 22:57:00,42.0,29.0,30.34,NE,34,1.0,3.0,61,0.00,,,0.00,weatherlink.com 1.10,2013-11-20 03:57:00,
2013-11-19 23:12:00,41.6,29.0,30.36,NE,45,0.0,2.0,62,0.00,,,0.00,weatherlink.com 1.10,2013-11-20 04:12:00,
2013-11-19 23:27:00,40.9,29.0,30.36,NNE,17,0.0,3.0,63,0.00,,,0.00,weatherlink.com 1.10,2013-11-20 04:27:00,
2013-11-19 23:42:00,40.8,29.0,30.37,North,360,1.0,3.0,63,0.00,,,0.00,weatherlink.com 1.10,2013-11-20 04:42:00,
2013-11-19 23:57:00,40.6,29.0,30.37,North,8,0.0,2.0,64,0.00,,,0.00,weatherlink.com 1.10,2013-11-20 04:57:00,